Time;durP1;ratioP1;P1;durP2;ratioP2;P2;SDS_P1;SDS_P2;PMS_P1;PMS_P2;Temp;Humidity;BMP_temperature;BMP_pressure;BME280_temperature;BME280_humidity;BME280_pressure;Samples;Min_cycle;Max_cycle;Signal;HPM_P1;HPM_P2
2022/08/29 00:01:56;;;;;;;8.53;3.70;;;14.90;99.90;;;;;;5259395;28;20173;-51
2022/08/29 00:04:26;;;;;;;5.20;3.33;;;14.90;99.90;;;;;;5245187;28;20202;-48
2022/08/29 00:06:57;;;;;;;10.53;4.33;;;14.80;99.90;;;;;;5254004;28;20189;-47
2022/08/29 00:09:28;;;;;;;5.10;3.20;;;14.80;99.90;;;;;;5252306;28;20302;-48
2022/08/29 00:11:58;;;;;;;8.93;4.30;;;14.80;99.90;;;;;;5256174;28;20190;-47
2022/08/29 00:14:30;;;;;;;8.83;4.00;;;14.70;99.90;;;;;;5252445;28;20550;-47
2022/08/29 00:17:00;;;;;;;12.13;3.30;;;14.70;99.90;;;;;;5249235;28;20295;-50
2022/08/29 00:19:31;;;;;;;10.23;3.63;;;14.70;99.90;;;;;;5249421;28;20476;-48
2022/08/29 00:22:01;;;;;;;5.47;3.63;;;14.70;99.90;;;;;;5248794;28;20191;-48
2022/08/29 00:24:32;;;;;;;16.07;4.23;;;14.60;99.90;;;;;;5260923;28;20185;-49
2022/08/29 00:27:03;;;;;;;15.57;2.87;;;14.60;99.90;;;;;;5250973;28;20185;-48
2022/08/29 00:29:34;;;;;;;6.00;3.30;;;14.60;99.90;;;;;;5250593;28;20300;-51
2022/08/29 00:32:05;;;;;;;9.20;4.00;;;14.60;99.90;;;;;;5261197;28;20678;-50
2022/08/29 00:34:35;;;;;;;10.43;3.47;;;14.50;99.90;;;;;;5260718;28;20446;-48
2022/08/29 00:37:06;;;;;;;14.73;3.50;;;14.50;99.90;;;;;;5256618;28;20232;-47
2022/08/29 00:39:36;;;;;;;15.87;3.23;;;14.50;99.90;;;;;;5262816;28;20202;-48
2022/08/29 00:42:07;;;;;;;3.60;3.40;;;14.40;99.90;;;;;;5251156;28;20217;-49
2022/08/29 00:44:37;;;;;;;6.23;3.10;;;14.40;99.90;;;;;;5255434;28;20545;-50
2022/08/29 00:47:11;;;;;;;9.50;3.87;;;14.40;99.90;;;;;;5273010;28;20216;-48
2022/08/29 00:49:44;;;;;;;9.70;3.30;;;14.40;99.90;;;;;;5258265;28;20213;-50
2022/08/29 00:52:21;;;;;;;4.57;3.10;;;14.40;99.90;;;;;;5270335;28;20534;-49
2022/08/29 00:54:53;;;;;;;6.47;3.30;;;14.40;99.90;;;;;;5255419;28;20795;-48
2022/08/29 00:57:27;;;;;;;9.27;4.03;;;14.40;99.90;;;;;;5253673;28;20446;-48
2022/08/29 00:59:58;;;;;;;14.03;3.73;;;14.40;99.90;;;;;;5257062;28;20544;-47
2022/08/29 01:02:29;;;;;;;5.03;2.80;;;14.40;99.90;;;;;;5267699;28;20432;-48
2022/08/29 01:04:59;;;;;;;8.50;3.70;;;14.40;99.90;;;;;;5257707;28;20489;-49
2022/08/29 01:07:30;;;;;;;8.50;3.47;;;14.30;99.90;;;;;;5254303;28;20182;-46
2022/08/29 01:10:02;;;;;;;9.70;3.73;;;14.30;99.90;;;;;;5257902;28;20201;-48
2022/08/29 01:12:34;;;;;;;9.70;3.20;;;14.30;99.90;;;;;;5244414;28;20295;-48
2022/08/29 01:15:08;;;;;;;13.57;3.60;;;14.30;99.90;;;;;;5254425;28;20484;-48
2022/08/29 01:17:43;;;;;;;11.53;3.67;;;14.30;99.90;;;;;;5254460;28;20448;-48
2022/08/29 01:20:19;;;;;;;3.10;2.90;;;14.40;99.90;;;;;;5253033;28;20803;-47
2022/08/29 01:22:59;;;;;;;6.03;3.47;;;14.30;99.90;;;;;;5257648;28;20403;-49
2022/08/29 01:25:36;;;;;;;5.70;3.23;;;14.30;99.90;;;;;;5259996;28;20515;-47
2022/08/29 01:28:14;;;;;;;9.80;3.20;;;14.20;99.90;;;;;;5253662;28;20454;-48
2022/08/29 01:31:09;;;;;;;4.73;2.70;;;14.20;99.90;;;;;;5266444;28;20497;-47
2022/08/29 01:33:43;;;;;;;7.50;3.00;;;14.20;99.90;;;;;;5255682;28;20432;-47
2022/08/29 01:36:17;;;;;;;8.43;3.60;;;14.10;99.90;;;;;;5260445;28;20556;-47
2022/08/29 01:38:48;;;;;;;4.60;3.20;;;14.10;99.90;;;;;;5274709;28;20504;-47
2022/08/29 01:41:21;;;;;;;7.47;3.63;;;14.10;99.90;;;;;;5263494;28;20412;-48
2022/08/29 01:43:54;;;;;;;7.47;2.83;;;14.00;99.90;;;;;;5264551;28;20170;-48
2022/08/29 01:46:29;;;;;;;9.50;3.70;;;14.10;99.90;;;;;;5263476;28;20440;-46
2022/08/29 01:49:02;;;;;;;4.47;3.17;;;14.10;99.90;;;;;;5256822;28;20542;-48
2022/08/29 01:51:34;;;;;;;17.80;3.80;;;14.10;99.90;;;;;;5257725;28;20443;-46
2022/08/29 01:54:06;;;;;;;5.53;3.57;;;14.00;99.90;;;;;;5263361;28;20446;-47
2022/08/29 01:56:40;;;;;;;9.43;3.53;;;14.10;99.90;;;;;;5267900;28;20546;-47
2022/08/29 01:59:14;;;;;;;4.13;3.73;;;14.10;99.90;;;;;;5256438;28;20488;-51
2022/08/29 02:01:57;;;;;;;6.00;3.23;;;14.10;99.90;;;;;;5256851;28;20431;-46
2022/08/29 02:04:28;;;;;;;6.57;4.00;;;14.10;99.90;;;;;;5257709;28;20432;-47
2022/08/29 02:06:59;;;;;;;7.60;3.57;;;14.10;99.90;;;;;;5263626;28;20535;-47
2022/08/29 02:09:29;;;;;;;3.37;3.07;;;14.10;99.90;;;;;;5253899;28;20448;-49
2022/08/29 02:12:06;;;;;;;4.03;3.70;;;14.10;99.90;;;;;;5263267;28;20444;-48
2022/08/29 02:14:36;;;;;;;12.00;3.83;;;14.00;99.90;;;;;;5265219;28;20181;-48
2022/08/29 02:17:07;;;;;;;6.80;3.93;;;14.00;99.90;;;;;;5244179;28;20468;-48
2022/08/29 02:19:40;;;;;;;9.73;4.30;;;14.00;99.90;;;;;;5258655;28;20194;-49
2022/08/29 02:22:11;;;;;;;10.47;4.23;;;14.00;99.90;;;;;;5256449;28;20232;-49
2022/08/29 02:24:42;;;;;;;5.70;3.30;;;14.00;99.90;;;;;;5250989;28;20431;-48
2022/08/29 02:27:13;;;;;;;6.27;3.70;;;14.00;99.90;;;;;;5258386;28;20795;-47
2022/08/29 02:29:43;;;;;;;5.57;3.57;;;14.00;99.90;;;;;;5256381;28;20302;-47
2022/08/29 02:32:14;;;;;;;10.80;3.87;;;14.00;99.90;;;;;;5254553;28;20189;-47
2022/08/29 02:34:45;;;;;;;5.90;3.90;;;14.00;99.90;;;;;;5260946;28;20221;-48
2022/08/29 02:37:18;;;;;;;9.67;4.00;;;14.00;99.90;;;;;;5255513;28;20209;-47
2022/08/29 02:39:49;;;;;;;7.80;3.67;;;13.90;99.90;;;;;;5256225;28;20285;-46
2022/08/29 02:42:19;;;;;;;11.50;4.00;;;13.90;99.90;;;;;;5262878;28;21090;-47
2022/08/29 02:44:50;;;;;;;13.70;3.90;;;13.90;99.90;;;;;;5260313;28;20174;-48
2022/08/29 02:47:20;;;;;;;9.90;3.90;;;13.90;99.90;;;;;;5253014;28;20252;-48
2022/08/29 02:49:51;;;;;;;8.40;3.30;;;13.90;99.90;;;;;;5257182;28;20221;-47
2022/08/29 02:52:21;;;;;;;6.23;3.80;;;13.80;99.90;;;;;;5263157;28;20638;-47
2022/08/29 02:54:52;;;;;;;6.33;3.53;;;13.80;99.90;;;;;;5267637;28;20643;-48
2022/08/29 02:57:22;;;;;;;6.40;2.80;;;13.80;99.90;;;;;;5266384;28;20644;-47
2022/08/29 02:59:53;;;;;;;9.57;3.77;;;13.80;99.90;;;;;;5250311;28;20194;-47
2022/08/29 03:02:24;;;;;;;10.37;4.00;;;13.80;99.90;;;;;;5251418;28;20188;-46
2022/08/29 03:04:54;;;;;;;13.00;4.07;;;13.80;99.90;;;;;;5261080;28;20189;-46
2022/08/29 03:07:25;;;;;;;8.03;4.67;;;13.80;99.90;;;;;;5263206;28;20221;-48
2022/08/29 03:09:56;;;;;;;6.30;4.20;;;13.80;99.90;;;;;;5267252;28;20212;-49
2022/08/29 03:12:27;;;;;;;7.93;4.10;;;13.70;99.90;;;;;;5253251;28;20433;-47
2022/08/29 03:14:58;;;;;;;5.10;4.10;;;13.80;99.90;;;;;;5251450;28;20180;-50
2022/08/29 03:17:28;;;;;;;10.77;4.47;;;13.70;99.90;;;;;;5272809;28;20450;-48
2022/08/29 03:19:59;;;;;;;10.90;3.90;;;13.70;99.90;;;;;;5262409;28;20201;-47
2022/08/29 03:22:31;;;;;;;4.20;3.13;;;13.70;99.90;;;;;;5249524;28;20190;-47
2022/08/29 03:25:04;;;;;;;7.23;4.00;;;13.70;99.90;;;;;;5259203;28;20939;-48
2022/08/29 03:27:35;;;;;;;7.03;3.80;;;13.70;99.90;;;;;;5265708;28;20440;-47
2022/08/29 03:30:08;;;;;;;8.47;4.10;;;13.70;99.90;;;;;;5261719;28;20816;-47
2022/08/29 03:32:39;;;;;;;6.03;3.23;;;13.60;99.90;;;;;;5249334;28;20543;-48
2022/08/29 03:35:12;;;;;;;6.70;4.03;;;13.60;99.90;;;;;;5252002;28;20943;-49
2022/08/29 03:37:42;;;;;;;7.33;3.50;;;13.60;99.90;;;;;;5254897;28;20440;-47
2022/08/29 03:40:14;;;;;;;10.67;4.17;;;13.60;99.90;;;;;;5257628;28;20451;-46
2022/08/29 03:42:44;;;;;;;5.90;3.50;;;13.60;99.90;;;;;;5259306;28;20257;-47
2022/08/29 03:45:18;;;;;;;19.30;3.97;;;13.50;99.90;;;;;;5256064;28;20527;-46
2022/08/29 03:47:50;;;;;;;9.80;4.00;;;13.50;99.90;;;;;;5258090;28;20638;-47
2022/08/29 03:50:23;;;;;;;8.93;4.40;;;13.50;99.90;;;;;;5282270;22;20871;-51
2022/08/29 03:52:53;;;;;;;6.00;3.53;;;13.50;99.90;;;;;;5283623;28;20427;-51
2022/08/29 03:55:24;;;;;;;4.30;3.63;;;13.50;99.90;;;;;;5275253;27;20478;-51
2022/08/29 03:57:55;;;;;;;11.83;4.40;;;13.40;99.90;;;;;;5274852;28;20212;-51
2022/08/29 04:00:25;;;;;;;8.30;4.30;;;13.30;99.90;;;;;;5260651;28;20285;-51
2022/08/29 04:02:57;;;;;;;4.73;3.60;;;13.30;99.90;;;;;;5266421;28;20169;-52
2022/08/29 04:05:28;;;;;;;5.77;3.67;;;13.30;99.90;;;;;;5247587;28;20175;-51
2022/08/29 04:07:59;;;;;;;10.00;3.70;;;13.30;99.90;;;;;;5248297;28;20436;-51
2022/08/29 04:10:32;;;;;;;15.20;5.60;;;13.30;99.90;;;;;;5265147;28;20205;-53
2022/08/29 04:13:04;;;;;;;16.10;4.73;;;13.30;99.90;;;;;;5265437;28;20185;-53
2022/08/29 04:15:37;;;;;;;4.70;3.83;;;13.30;99.90;;;;;;5261416;28;20456;-51
2022/08/29 04:18:09;;;;;;;14.87;4.70;;;13.30;99.90;;;;;;5252048;28;20439;-51
2022/08/29 04:20:43;;;;;;;5.93;4.27;;;13.30;99.90;;;;;;5265029;28;20431;-50
2022/08/29 04:23:14;;;;;;;7.53;3.53;;;13.30;99.90;;;;;;5248385;28;20500;-52
2022/08/29 04:25:45;;;;;;;10.60;4.30;;;13.30;99.90;;;;;;5251478;28;20526;-51
2022/08/29 04:28:16;;;;;;;5.80;4.00;;;13.40;99.90;;;;;;5263077;28;20440;-51
2022/08/29 04:30:49;;;;;;;7.70;4.90;;;13.50;99.90;;;;;;5276718;28;20247;-51
2022/08/29 04:33:22;;;;;;;10.13;4.27;;;13.60;99.90;;;;;;5263396;28;20436;-51
2022/08/29 04:35:52;;;;;;;5.70;4.30;;;13.70;99.90;;;;;;5266816;28;20981;-52
2022/08/29 04:38:23;;;;;;;13.10;4.60;;;13.90;99.90;;;;;;5247407;28;20417;-51
2022/08/29 04:40:55;;;;;;;10.53;5.00;;;14.00;99.90;;;;;;5260852;28;20281;-51
2022/08/29 04:43:26;;;;;;;12.10;4.97;;;14.10;99.90;;;;;;5261790;28;20668;-51
2022/08/29 04:45:56;;;;;;;12.03;4.83;;;14.20;99.90;;;;;;5252971;28;20440;-50
2022/08/29 04:48:27;;;;;;;8.50;4.60;;;14.30;99.90;;;;;;5248665;28;20185;-52
2022/08/29 04:51:00;;;;;;;6.57;3.87;;;14.40;99.90;;;;;;5263815;28;20867;-51
2022/08/29 04:53:31;;;;;;;5.10;4.33;;;14.50;99.90;;;;;;5248250;28;20901;-51
2022/08/29 04:56:05;;;;;;;8.00;4.07;;;14.50;99.90;;;;;;5251652;28;20456;-52
2022/08/29 04:58:38;;;;;;;8.47;4.57;;;14.70;99.90;;;;;;5255183;28;20338;-53
2022/08/29 05:01:16;;;;;;;7.03;4.03;;;14.80;99.90;;;;;;5259729;28;20421;-52
2022/08/29 05:03:47;;;;;;;6.17;4.00;;;14.80;99.90;;;;;;5245214;28;20528;-52
2022/08/29 05:06:20;;;;;;;14.57;5.10;;;14.90;99.90;;;;;;5259678;28;20624;-52
2022/08/29 05:08:51;;;;;;;11.20;4.63;;;15.00;99.90;;;;;;5242511;28;20786;-51
2022/08/29 05:11:22;;;;;;;6.43;4.03;;;15.10;99.90;;;;;;5267005;28;20752;-52
2022/08/29 05:13:52;;;;;;;9.90;4.53;;;15.20;99.90;;;;;;5266781;28;20430;-52
2022/08/29 05:16:23;;;;;;;11.93;4.20;;;15.30;99.90;;;;;;5265619;28;20699;-55
2022/08/29 05:18:54;;;;;;;7.27;4.30;;;15.40;99.90;;;;;;5265416;28;20584;-51
2022/08/29 05:21:30;;;;;;;7.10;4.83;;;15.40;99.90;;;;;;5260637;28;20249;-52
2022/08/29 05:24:04;;;;;;;8.60;5.57;;;15.30;99.90;;;;;;5264865;28;20509;-52
2022/08/29 05:26:41;;;;;;;10.73;4.70;;;15.30;99.90;;;;;;5260800;28;20776;-51
2022/08/29 05:29:12;;;;;;;8.37;6.03;;;15.10;99.90;;;;;;5256026;28;20856;-51
2022/08/29 05:31:43;;;;;;;8.27;5.77;;;15.00;99.90;;;;;;5255696;28;20517;-52
2022/08/29 05:34:13;;;;;;;17.23;7.40;;;14.90;99.90;;;;;;5269951;28;20439;-51
2022/08/29 05:36:44;;;;;;;12.50;6.00;;;15.00;99.90;;;;;;5267164;28;20247;-51
2022/08/29 05:39:14;;;;;;;10.40;6.20;;;15.00;99.90;;;;;;5259608;28;20194;-52
2022/08/29 05:41:45;;;;;;;11.77;6.00;;;15.10;99.90;;;;;;5269591;28;20227;-52
2022/08/29 05:44:16;;;;;;;23.90;7.30;;;15.30;99.90;;;;;;5258483;28;20260;-51
2022/08/29 05:46:47;;;;;;;31.50;8.53;;;15.30;99.90;;;;;;5267297;28;20529;-52
2022/08/29 05:49:18;;;;;;;13.60;6.10;;;15.50;99.90;;;;;;5259063;28;20233;-52
2022/08/29 05:51:51;;;;;;;16.33;5.90;;;15.60;99.90;;;;;;5263671;28;20432;-51
2022/08/29 05:54:23;;;;;;;9.23;5.63;;;15.70;99.90;;;;;;5263259;28;20198;-51
2022/08/29 05:56:53;;;;;;;14.90;6.00;;;16.10;99.90;;;;;;5269440;28;20471;-51
2022/08/29 05:59:24;;;;;;;13.40;6.33;;;16.70;99.90;;;;;;5268716;28;20500;-51
2022/08/29 06:01:55;;;;;;;15.30;5.70;;;16.90;99.90;;;;;;5269170;28;20189;-51
2022/08/29 06:04:26;;;;;;;6.40;5.37;;;16.80;99.90;;;;;;5255985;28;20181;-52
2022/08/29 06:06:56;;;;;;;8.37;5.73;;;16.80;99.90;;;;;;5261687;28;20444;-50
2022/08/29 06:09:27;;;;;;;14.60;4.87;;;16.70;99.90;;;;;;5266731;28;20198;-50
2022/08/29 06:11:58;;;;;;;16.73;5.90;;;16.70;99.90;;;;;;5269206;28;20184;-49
2022/08/29 06:14:29;;;;;;;10.63;5.23;;;16.60;99.90;;;;;;5255576;28;20182;-49
2022/08/29 06:17:00;;;;;;;13.03;6.80;;;16.60;99.90;;;;;;5253144;28;20219;-49
2022/08/29 06:19:33;;;;;;;10.97;6.23;;;16.60;99.90;;;;;;5267881;28;20212;-50
2022/08/29 06:22:07;;;;;;;16.77;6.60;;;16.60;99.90;;;;;;5267530;28;20763;-48
2022/08/29 06:24:38;;;;;;;11.10;5.53;;;16.70;99.90;;;;;;5270247;28;20435;-48
2022/08/29 06:27:09;;;;;;;11.10;4.93;;;16.70;99.90;;;;;;5269562;28;20419;-47
2022/08/29 06:29:40;;;;;;;12.63;5.00;;;16.70;99.90;;;;;;5261477;28;20464;-47
2022/08/29 06:32:12;;;;;;;15.40;4.90;;;16.70;99.90;;;;;;5261410;28;20177;-48
2022/08/29 06:34:42;;;;;;;9.37;5.60;;;16.60;99.90;;;;;;5257376;28;20433;-49
2022/08/29 06:37:13;;;;;;;7.17;4.50;;;16.50;99.90;;;;;;5268565;28;20520;-47
2022/08/29 06:39:43;;;;;;;23.60;5.80;;;16.40;99.90;;;;;;5266541;28;20201;-48
2022/08/29 06:42:17;;;;;;;5.33;4.30;;;16.40;99.90;;;;;;5263698;28;20540;-48
2022/08/29 06:44:48;;;;;;;10.93;5.10;;;16.50;99.90;;;;;;5266512;28;20636;-49
2022/08/29 06:47:18;;;;;;;18.47;5.00;;;16.70;99.90;;;;;;5261180;28;20436;-49
2022/08/29 06:49:49;;;;;;;14.60;5.40;;;16.70;99.90;;;;;;5259454;28;20217;-49
2022/08/29 06:52:19;;;;;;;10.50;5.80;;;16.90;99.90;;;;;;5262304;28;20320;-49
2022/08/29 06:54:50;;;;;;;8.70;5.17;;;17.00;99.90;;;;;;5268428;28;20188;-48
2022/08/29 06:57:21;;;;;;;12.50;4.87;;;17.10;99.90;;;;;;5267330;28;20208;-50
2022/08/29 06:59:51;;;;;;;14.23;5.80;;;17.30;99.90;;;;;;5259953;28;20556;-49
2022/08/29 07:02:22;;;;;;;9.33;5.10;;;17.40;99.90;;;;;;5267036;28;20193;-48
2022/08/29 07:04:52;;;;;;;20.13;5.80;;;17.40;99.90;;;;;;5256555;28;20181;-48
2022/08/29 07:07:23;;;;;;;7.13;5.10;;;17.50;99.90;;;;;;5269972;28;20205;-50
2022/08/29 07:09:53;;;;;;;7.63;4.90;;;17.60;99.90;;;;;;5266203;28;20201;-49
2022/08/29 07:12:24;;;;;;;10.33;4.90;;;17.40;99.90;;;;;;5267978;28;20186;-50
2022/08/29 07:14:55;;;;;;;11.63;5.63;;;17.30;99.90;;;;;;5267745;28;20220;-48
2022/08/29 07:17:25;;;;;;;8.27;4.40;;;17.30;99.90;;;;;;5262436;28;20213;-49
2022/08/29 07:19:56;;;;;;;8.63;4.67;;;17.40;99.90;;;;;;5267012;28;20310;-50
2022/08/29 07:22:26;;;;;;;10.90;5.07;;;17.60;99.90;;;;;;5266905;28;20205;-50
2022/08/29 07:24:57;;;;;;;9.80;4.97;;;17.60;99.90;;;;;;5264175;28;20179;-48
2022/08/29 07:27:28;;;;;;;11.73;5.07;;;17.70;99.90;;;;;;5257106;28;20181;-49
2022/08/29 07:30:01;;;;;;;8.90;5.70;;;17.70;99.90;;;;;;5268031;28;20216;-48
2022/08/29 07:32:32;;;;;;;8.40;4.73;;;17.80;99.90;;;;;;5264399;28;20436;-49
2022/08/29 07:35:02;;;;;;;9.53;4.73;;;17.80;99.90;;;;;;5263529;28;20435;-50
2022/08/29 07:37:33;;;;;;;19.10;5.03;;;17.90;99.90;;;;;;5260666;28;20181;-49
2022/08/29 07:40:05;;;;;;;12.13;5.03;;;17.90;99.90;;;;;;5262523;28;20210;-48
2022/08/29 07:42:37;;;;;;;9.23;4.80;;;17.90;99.90;;;;;;5253914;28;20177;-47
2022/08/29 07:45:10;;;;;;;10.40;5.07;;;17.80;99.90;;;;;;5257948;28;20427;-48
2022/08/29 07:47:40;;;;;;;11.03;4.90;;;17.80;99.90;;;;;;5255606;28;20431;-48
2022/08/29 07:50:12;;;;;;;5.90;4.10;;;17.80;99.90;;;;;;5266284;28;20467;-48
2022/08/29 07:52:43;;;;;;;8.23;5.10;;;17.80;99.90;;;;;;5264813;28;20177;-47
2022/08/29 07:55:14;;;;;;;11.70;5.13;;;17.90;99.90;;;;;;5263922;28;20451;-49
2022/08/29 07:57:47;;;;;;;6.20;5.03;;;18.00;99.90;;;;;;5264982;28;20182;-48
2022/08/29 08:00:18;;;;;;;9.80;5.67;;;18.00;99.90;;;;;;5264154;28;20194;-50
2022/08/29 08:02:50;;;;;;;12.90;5.33;;;18.10;99.90;;;;;;5257254;28;20423;-47
2022/08/29 08:05:20;;;;;;;5.00;4.43;;;18.10;99.90;;;;;;5251880;28;20436;-48
2022/08/29 08:07:51;;;;;;;8.47;4.53;;;18.20;99.90;;;;;;5247954;28;20436;-51
2022/08/29 08:10:22;;;;;;;11.87;4.43;;;18.40;99.90;;;;;;5262476;28;20555;-52
2022/08/29 08:12:52;;;;;;;10.70;5.37;;;18.30;99.90;;;;;;5260800;28;20182;-50
2022/08/29 08:15:23;;;;;;;9.27;4.93;;;18.40;99.90;;;;;;5266283;28;20211;-50
2022/08/29 08:17:54;;;;;;;9.10;5.13;;;18.60;99.90;;;;;;5264708;28;20254;-52
2022/08/29 08:20:24;;;;;;;9.07;5.10;;;19.00;99.90;;;;;;5257885;28;20205;-51
2022/08/29 08:22:55;;;;;;;9.63;5.20;;;19.30;99.90;;;;;;5257646;28;20178;-53
2022/08/29 08:25:25;;;;;;;6.70;4.90;;;19.60;99.90;;;;;;5258952;28;20228;-51
2022/08/29 08:27:57;;;;;;;5.00;4.50;;;19.30;99.90;;;;;;5261178;28;20182;-51
2022/08/29 08:30:28;;;;;;;8.50;5.33;;;19.10;99.90;;;;;;5265264;28;20204;-51
2022/08/29 08:32:59;;;;;;;7.80;4.93;;;19.20;99.90;;;;;;5264957;28;20435;-52
2022/08/29 08:35:37;;;;;;;6.17;4.30;;;19.20;99.90;;;;;;5264086;28;20729;-49
2022/08/29 08:38:09;;;;;;;6.13;3.80;;;19.30;99.90;;;;;;5262059;28;20204;-52
2022/08/29 08:41:00;;;;;;;6.77;4.67;;;19.40;99.90;;;;;;5258374;28;20470;-51
2022/08/29 08:44:02;;;;;;;9.23;5.80;;;19.30;99.90;;;;;;5264973;28;20522;-52
2022/08/29 08:46:37;;;;;;;9.10;4.57;;;19.40;99.90;;;;;;5252808;28;20450;-49
2022/08/29 08:49:14;;;;;;;13.97;5.00;;;19.30;99.90;;;;;;5248847;28;20581;-53
2022/08/29 08:51:59;;;;;;;14.20;4.97;;;19.30;99.90;;;;;;5258100;28;20423;-51
2022/08/29 08:54:45;;;;;;;5.20;4.70;;;19.20;99.90;;;;;;5249618;28;20480;-51
2022/08/29 08:57:17;;;;;;;12.27;4.57;;;19.00;99.90;;;;;;5266171;28;20996;-51
2022/08/29 08:59:57;;;;;;;6.67;4.80;;;19.20;99.90;;;;;;5261700;28;20512;-51
2022/08/29 09:03:12;;;;;;;11.20;5.67;;;19.40;99.90;;;;;;5255080;28;20419;-50
2022/08/29 09:06:04;;;;;;;6.10;4.23;;;20.00;99.90;;;;;;5234989;28;20462;-54
2022/08/29 09:08:55;;;;;;;8.77;4.53;;;20.40;99.90;;;;;;5259733;28;20534;-52
2022/08/29 09:11:47;;;;;;;13.50;4.50;;;20.50;99.90;;;;;;5267608;28;20500;-52
2022/08/29 09:14:33;;;;;;;6.93;4.50;;;20.50;99.90;;;;;;5270383;28;20443;-51
2022/08/29 09:17:08;;;;;;;12.63;4.70;;;20.20;99.90;;;;;;5264168;28;20459;-51
2022/08/29 09:19:40;;;;;;;9.03;4.30;;;20.00;99.90;;;;;;5264905;28;20455;-52
2022/08/29 09:22:18;;;;;;;7.23;4.53;;;19.90;99.90;;;;;;5266953;28;20533;-53
2022/08/29 09:24:58;;;;;;;9.70;5.40;;;19.90;99.90;;;;;;5264098;28;20453;-52
2022/08/29 09:27:31;;;;;;;4.87;3.73;;;20.00;99.90;;;;;;5266551;28;20438;-52
2022/08/29 09:30:07;;;;;;;6.30;4.07;;;20.20;99.90;;;;;;5270857;28;20470;-51
2022/08/29 09:33:01;;;;;;;7.10;4.53;;;20.60;99.90;;;;;;5270217;28;20493;-52
2022/08/29 09:35:46;;;;;;;6.73;4.07;;;20.90;99.90;;;;;;5268232;28;20463;-52
2022/08/29 09:38:17;;;;;;;5.80;4.43;;;21.00;99.90;;;;;;5265553;28;20433;-53
2022/08/29 09:40:55;;;;;;;8.07;4.27;;;21.20;99.90;;;;;;5261347;28;20459;-52
2022/08/29 09:43:38;;;;;;;6.70;4.37;;;21.30;99.90;;;;;;5265100;28;20619;-52
2022/08/29 09:46:21;;;;;;;6.80;4.07;;;21.40;99.90;;;;;;5254058;28;20440;-53
2022/08/29 09:48:58;;;;;;;5.53;4.70;;;21.30;99.90;;;;;;5264441;28;20451;-49
2022/08/29 09:51:32;;;;;;;6.43;5.00;;;21.20;99.90;;;;;;5262753;28;20898;-48
2022/08/29 09:54:26;;;;;;;9.87;4.67;;;21.20;99.90;;;;;;5253434;28;20457;-50
2022/08/29 09:57:18;;;;;;;9.67;4.97;;;21.20;99.90;;;;;;5269741;28;20532;-50
2022/08/29 10:00:09;;;;;;;3.97;3.50;;;21.50;99.90;;;;;;5270776;28;20462;-48
2022/08/29 10:02:50;;;;;;;8.73;4.47;;;21.70;99.90;;;;;;5268833;28;20453;-49
2022/08/29 10:05:43;;;;;;;17.37;4.97;;;21.90;99.90;;;;;;5257762;28;20442;-49
2022/08/29 10:08:54;;;;;;;22.63;5.00;;;21.90;99.90;;;;;;5256489;28;20518;-48
2022/08/29 10:11:52;;;;;;;14.80;4.93;;;21.90;99.90;;;;;;5253707;28;20523;-48
2022/08/29 10:14:35;;;;;;;12.60;5.00;;;22.00;99.90;;;;;;5249381;28;20436;-50
2022/08/29 10:20:10;;;;;;;6.30;4.73;;;21.90;99.90;;;;;;5255859;28;20442;-47
2022/08/29 10:23:05;;;;;;;20.43;5.87;;;21.80;99.90;;;;;;5263201;28;20458;-48
2022/08/29 10:25:39;;;;;;;10.57;3.93;;;21.70;99.90;;;;;;5264470;28;20436;-48
2022/08/29 10:28:33;;;;;;;6.57;4.53;;;21.60;99.90;;;;;;5265390;28;20462;-48
2022/08/29 10:31:13;;;;;;;7.40;5.23;;;21.60;99.90;;;;;;5266260;28;20431;-48
2022/08/29 10:33:46;;;;;;;4.53;4.13;;;21.50;99.90;;;;;;5260882;28;20431;-49
2022/08/29 10:36:28;;;;;;;6.63;4.47;;;21.50;99.90;;;;;;5259821;28;20913;-48
2022/08/29 10:39:05;;;;;;;5.10;4.53;;;21.60;99.90;;;;;;5267272;28;20459;-48
2022/08/29 10:42:01;;;;;;;5.17;4.10;;;21.60;99.90;;;;;;5266264;28;20664;-49
2022/08/29 10:44:49;;;;;;;9.17;6.10;;;21.40;99.90;;;;;;5263755;28;20854;-48
2022/08/29 10:47:53;;;;;;;7.00;5.67;;;21.40;99.90;;;;;;5262532;28;20446;-48
2022/08/29 10:50:28;;;;;;;7.73;5.40;;;21.40;99.90;;;;;;5228865;28;20489;-48
2022/08/29 10:53:25;;;;;;;7.60;4.13;;;21.50;99.90;;;;;;5246378;28;20458;-48
2022/08/29 10:56:09;;;;;;;7.17;4.53;;;21.40;99.90;;;;;;5249501;28;20968;-49
2022/08/29 10:59:06;;;;;;;6.33;4.70;;;21.60;99.90;;;;;;5266872;28;20424;-49
2022/08/29 11:01:39;;;;;;;4.87;3.97;;;21.60;99.90;;;;;;5265787;28;20439;-50
2022/08/29 11:04:16;;;;;;;17.50;6.30;;;21.70;99.90;;;;;;5253049;28;21145;-50
2022/08/29 11:07:12;;;;;;;8.47;5.87;;;21.60;99.90;;;;;;5266015;28;20435;-48
2022/08/29 11:09:49;;;;;;;13.73;5.20;;;21.40;99.90;;;;;;5265024;28;20432;-49
2022/08/29 11:12:26;;;;;;;6.13;4.87;;;21.70;99.90;;;;;;5259701;28;20931;-48
2022/08/29 11:15:20;;;;;;;5.60;4.27;;;21.90;99.90;;;;;;5260532;28;20427;-48
2022/08/29 11:18:04;;;;;;;5.63;4.43;;;22.20;99.90;;;;;;5266605;28;20534;-49
2022/08/29 11:20:42;;;;;;;5.83;4.70;;;22.20;99.90;;;;;;5265486;28;20460;-49
2022/08/29 11:23:22;;;;;;;8.00;4.70;;;22.00;99.90;;;;;;5258370;28;20518;-48
2022/08/29 11:25:55;;;;;;;5.30;3.53;;;21.90;99.90;;;;;;5255662;28;20440;-48
2022/08/29 11:28:56;;;;;;;9.27;3.70;;;21.90;99.90;;;;;;5265585;28;20428;-48
2022/08/29 11:31:47;;;;;;;5.27;3.57;;;22.00;99.90;;;;;;5263359;28;20515;-48
2022/08/29 11:34:30;;;;;;;7.50;4.67;;;22.10;99.90;;;;;;5260712;28;20432;-48
2022/08/29 11:37:30;;;;;;;4.33;3.93;;;22.20;99.90;;;;;;5266422;28;20471;-48
2022/08/29 11:40:28;;;;;;;4.83;4.20;;;22.60;99.90;;;;;;5253642;28;20459;-48
2022/08/29 11:43:01;;;;;;;7.90;4.70;;;23.00;99.90;;;;;;5252216;28;20522;-47
2022/08/29 11:45:42;;;;;;;3.97;3.57;;;23.20;99.90;;;;;;5268387;28;20423;-48
2022/08/29 11:48:30;;;;;;;4.20;3.73;;;23.60;99.90;;;;;;5261036;28;20423;-50
2022/08/29 11:51:33;;;;;;;5.20;4.30;;;23.70;99.90;;;;;;5268353;28;20970;-48
2022/08/29 11:54:23;;;;;;;5.40;4.27;;;23.90;99.90;;;;;;5252380;28;20439;-48
2022/08/29 11:56:59;;;;;;;4.87;3.70;;;24.00;99.90;;;;;;5266684;28;20463;-46
2022/08/29 11:59:55;;;;;;;6.80;3.50;;;24.30;99.90;;;;;;5262119;28;20466;-49
2022/08/29 12:02:29;;;;;;;8.70;4.20;;;24.10;99.90;;;;;;5258312;28;20518;-48
2022/08/29 12:05:19;;;;;;;9.20;4.50;;;24.20;99.90;;;;;;5258080;28;20964;-48
2022/08/29 12:07:56;;;;;;;7.63;3.83;;;24.10;99.90;;;;;;5263430;28;21000;-49
2022/08/29 12:10:53;;;;;;;8.33;4.33;;;24.00;99.90;;;;;;5263909;28;20462;-48
2022/08/29 12:13:42;;;;;;;4.40;3.73;;;23.90;99.90;;;;;;5264648;28;20972;-48
2022/08/29 12:16:24;;;;;;;5.47;3.57;;;23.90;99.90;;;;;;5263533;28;20467;-48
2022/08/29 12:18:56;;;;;;;5.20;4.70;;;23.30;99.90;;;;;;5259290;28;20444;-48
2022/08/29 12:21:31;;;;;;;6.33;3.40;;;23.10;99.90;;;;;;5266095;28;20505;-48
2022/08/29 12:24:25;;;;;;;4.33;3.87;;;23.10;99.90;;;;;;5266108;28;20563;-50
2022/08/29 12:26:57;;;;;;;11.27;5.20;;;23.30;99.90;;;;;;5259529;28;20435;-50
2022/08/29 12:29:32;;;;;;;4.80;3.60;;;23.60;99.90;;;;;;5261022;28;20859;-49
2022/08/29 12:33:04;;;;;;;5.57;3.97;;;23.70;99.90;;;;;;5260383;28;20522;-48
2022/08/29 12:36:00;;;;;;;5.73;4.20;;;23.60;99.90;;;;;;5131483;28;20479;-49
2022/08/29 12:38:37;;;;;;;5.73;4.00;;;23.60;99.90;;;;;;5161884;28;20904;-48
2022/08/29 12:41:45;;;;;;;6.20;4.47;;;23.80;99.90;;;;;;5242335;28;20438;-48
2022/08/29 12:44:23;;;;;;;6.57;3.57;;;23.70;99.60;;;;;;5265829;28;20521;-49
2022/08/29 12:47:05;;;;;;;4.60;4.10;;;23.80;99.70;;;;;;5261014;28;20468;-49
2022/08/29 12:49:50;;;;;;;14.73;7.30;;;23.90;99.20;;;;;;5263356;28;20472;-49
2022/08/29 12:52:21;;;;;;;7.63;5.13;;;23.90;98.70;;;;;;5250686;28;20915;-49
2022/08/29 12:54:52;;;;;;;7.40;5.60;;;23.90;98.30;;;;;;5259609;28;20423;-48
2022/08/29 12:57:33;;;;;;;6.87;3.80;;;23.80;98.90;;;;;;5266214;28;20292;-49
2022/08/29 13:00:12;;;;;;;8.20;4.50;;;24.00;98.50;;;;;;5254655;28;20452;-48
2022/08/29 13:02:55;;;;;;;10.87;5.10;;;24.00;98.00;;;;;;5279348;28;20470;-50
2022/08/29 13:05:28;;;;;;;4.90;2.97;;;24.10;97.70;;;;;;5263514;28;20438;-49
2022/08/29 13:08:08;;;;;;;6.90;3.10;;;24.20;97.50;;;;;;5262300;28;20897;-48
2022/08/29 13:11:11;;;;;;;5.30;3.30;;;24.10;97.40;;;;;;5263899;28;20443;-49
2022/08/29 13:13:42;;;;;;;4.60;3.83;;;24.00;97.30;;;;;;5236540;28;20511;-47
2022/08/29 13:16:33;;;;;;;7.03;4.13;;;23.90;97.90;;;;;;5262589;28;20543;-49
2022/08/29 13:19:16;;;;;;;4.70;3.80;;;23.80;98.50;;;;;;5264836;28;20228;-49
2022/08/29 13:21:47;;;;;;;3.17;2.97;;;23.80;98.50;;;;;;5259339;28;20455;-48
2022/08/29 13:24:19;;;;;;;4.43;3.30;;;23.60;97.90;;;;;;5261672;28;21310;-48
2022/08/29 13:26:56;;;;;;;5.87;3.70;;;23.70;98.00;;;;;;5264219;28;20189;-48
2022/08/29 13:29:34;;;;;;;8.80;4.40;;;23.80;97.70;;;;;;5261894;28;20454;-48
2022/08/29 13:32:21;;;;;;;8.90;5.30;;;23.90;97.40;;;;;;5258884;28;20503;-50